createdAt,value
2018-03-27T00:02:12.374Z,4.20
2018-03-27T00:04:39.829Z,4.20
2018-03-27T00:07:07.302Z,4.20
2018-03-27T00:09:34.771Z,4.20
2018-03-27T00:12:02.249Z,4.20
2018-03-27T00:14:29.743Z,4.30
2018-03-27T00:16:57.209Z,4.30
2018-03-27T00:19:25.437Z,4.30
2018-03-27T00:21:52.914Z,4.20
2018-03-27T00:24:20.398Z,4.20
2018-03-27T00:26:59.693Z,4.20
2018-03-27T00:29:38.857Z,4.30
2018-03-27T00:32:18.101Z,4.30
2018-03-27T00:34:57.942Z,4.20
2018-03-27T00:37:38.146Z,4.20
2018-03-27T00:40:17.414Z,4.20
2018-03-27T00:42:51.495Z,4.20
2018-03-27T00:45:18.998Z,4.20
2018-03-27T00:47:46.472Z,4.20
2018-03-27T00:50:13.928Z,4.30
2018-03-27T00:52:41.410Z,4.20
2018-03-27T00:55:08.870Z,4.20
2018-03-27T00:57:36.354Z,4.30
2018-03-27T01:00:03.831Z,4.30
2018-03-27T01:02:31.306Z,4.30
2018-03-27T01:05:04.341Z,4.30
2018-03-27T01:07:31.794Z,4.30
2018-03-27T01:09:59.266Z,4.30
2018-03-27T01:12:26.743Z,4.40
2018-03-27T01:14:54.205Z,4.40
2018-03-27T01:17:21.666Z,4.30
2018-03-27T01:19:49.133Z,4.30
2018-03-27T01:22:17.378Z,4.30
2018-03-27T01:24:44.854Z,4.30
2018-03-27T01:27:12.312Z,4.40
2018-03-27T01:29:40.563Z,4.30
2018-03-27T01:32:08.038Z,4.40
2018-03-27T01:34:35.502Z,4.40
2018-03-27T01:37:02.956Z,4.50
2018-03-27T01:39:30.676Z,4.50
2018-03-27T01:41:58.140Z,4.60
2018-03-27T01:44:25.637Z,4.60
2018-03-27T01:46:53.077Z,4.60
2018-03-27T01:49:20.563Z,4.70
2018-03-27T01:51:48.811Z,4.70
2018-03-27T01:54:16.288Z,4.70
2018-03-27T01:56:43.770Z,4.70
2018-03-27T01:59:11.269Z,4.70
2018-03-27T02:01:38.755Z,4.60
2018-03-27T02:04:07.018Z,4.60
2018-03-27T02:06:34.537Z,4.60
2018-03-27T02:09:02.774Z,4.50
2018-03-27T02:11:35.855Z,4.50
2018-03-27T02:14:08.897Z,4.50
2018-03-27T02:16:42.051Z,4.60
2018-03-27T02:19:14.971Z,4.60
2018-03-27T02:21:41.975Z,4.60
2018-03-27T02:24:11.137Z,4.70
2018-03-27T02:26:38.677Z,4.60
2018-03-27T02:29:06.176Z,4.60
2018-03-27T02:31:33.629Z,4.70
2018-03-27T02:34:01.183Z,4.70
2018-03-27T02:36:28.646Z,4.70
2018-03-27T02:38:56.141Z,4.70
2018-03-27T02:41:23.642Z,4.60
2018-03-27T02:43:51.126Z,4.60
2018-03-27T02:46:18.599Z,4.60
2018-03-27T02:48:46.859Z,4.50
2018-03-27T02:51:14.348Z,4.50
2018-03-27T02:53:41.870Z,4.50
2018-03-27T02:56:09.395Z,4.50
2018-03-27T02:58:36.858Z,4.60
2018-03-27T03:01:04.358Z,4.60
2018-03-27T03:03:31.878Z,4.60
2018-03-27T03:05:59.340Z,4.50
2018-03-27T03:08:26.789Z,4.50
2018-03-27T03:10:54.269Z,4.50
2018-03-27T03:13:21.715Z,4.50
2018-03-27T03:15:49.174Z,4.50
2018-03-27T03:18:16.654Z,4.40
2018-03-27T03:20:44.111Z,4.40
2018-03-27T03:23:11.570Z,4.40
2018-03-27T03:25:39.041Z,4.40
2018-03-27T03:28:06.486Z,4.40
2018-03-27T03:30:33.958Z,4.40
2018-03-27T03:33:01.439Z,4.40
2018-03-27T03:35:29.678Z,4.40
2018-03-27T03:37:57.134Z,4.40
2018-03-27T03:40:24.589Z,4.40
2018-03-27T03:42:52.821Z,4.40
2018-03-27T03:45:20.282Z,4.40
2018-03-27T03:47:47.764Z,4.40
2018-03-27T03:50:15.206Z,4.40
2018-03-27T03:52:42.698Z,4.40
2018-03-27T03:55:10.158Z,4.40
2018-03-27T03:57:37.644Z,4.40
2018-03-27T04:00:05.121Z,4.50
2018-03-27T04:02:32.582Z,4.50
2018-03-27T04:05:00.064Z,4.50
2018-03-27T04:07:28.322Z,4.50
2018-03-27T04:09:55.799Z,4.50
2018-03-27T04:12:24.053Z,4.60
2018-03-27T04:14:51.502Z,4.60
2018-03-27T04:17:18.988Z,4.60
2018-03-27T04:19:47.224Z,4.60
2018-03-27T04:22:14.716Z,4.60
2018-03-27T04:24:42.942Z,4.60
2018-03-27T04:27:10.447Z,4.60
2018-03-27T04:29:37.982Z,4.60
2018-03-27T04:32:05.474Z,4.70
2018-03-27T04:34:33.716Z,4.60
2018-03-27T04:37:01.181Z,4.60
2018-03-27T04:39:28.648Z,4.60
2018-03-27T04:41:56.171Z,4.60
2018-03-27T04:44:23.673Z,4.60
2018-03-27T04:46:51.945Z,4.70
2018-03-27T04:49:20.199Z,4.70
2018-03-27T04:51:47.682Z,4.70
2018-03-27T04:54:15.187Z,4.60
2018-03-27T04:56:42.653Z,4.60
2018-03-27T04:59:10.202Z,4.70
2018-03-27T05:01:37.670Z,4.70
2018-03-27T05:04:05.885Z,4.70
2018-03-27T05:06:33.384Z,4.70
2018-03-27T05:09:00.874Z,4.80
2018-03-27T05:11:28.350Z,4.80
2018-03-27T05:13:55.831Z,4.90
2018-03-27T05:16:23.334Z,4.80
2018-03-27T05:18:50.838Z,4.90
2018-03-27T05:21:19.102Z,5.00
2018-03-27T05:23:46.669Z,5.00
2018-03-27T05:29:04.675Z,5.10
2018-03-27T05:31:32.150Z,5.00
2018-03-27T05:33:59.643Z,5.00
2018-03-27T05:36:27.911Z,5.10
2018-03-27T05:38:56.197Z,5.10
2018-03-27T05:41:24.443Z,5.00
2018-03-27T05:43:51.946Z,5.00
2018-03-27T05:46:19.461Z,5.00
2018-03-27T05:48:47.767Z,4.90
2018-03-27T05:51:16.016Z,4.90
2018-03-27T05:53:44.291Z,4.90
2018-03-27T05:56:11.772Z,4.90
2018-03-27T05:58:39.276Z,4.90
2018-03-27T06:01:06.808Z,4.90
2018-03-27T06:03:36.981Z,4.90
2018-03-27T06:06:05.315Z,4.90
2018-03-27T06:08:32.848Z,4.90
2018-03-27T06:11:01.105Z,5.00
2018-03-27T06:13:29.402Z,5.00
2018-03-27T06:15:56.889Z,5.00
2018-03-27T06:18:24.410Z,5.10
2018-03-27T06:20:52.107Z,5.20
2018-03-27T06:23:19.608Z,5.20
2018-03-27T06:25:47.152Z,5.30
2018-03-27T06:28:14.648Z,5.30
2018-03-27T06:30:42.162Z,5.40
2018-03-27T06:33:09.734Z,5.50
2018-03-27T06:35:37.403Z,5.50
2018-03-27T06:38:05.049Z,5.60
2018-03-27T06:40:32.534Z,5.60
2018-03-27T06:43:00.023Z,5.60
2018-03-27T06:45:27.500Z,5.60
2018-03-27T06:47:55.011Z,5.70
2018-03-27T06:50:23.270Z,5.70
2018-03-27T06:52:50.838Z,5.70
2018-03-27T06:55:18.277Z,5.70
2018-03-27T06:57:45.875Z,5.80
2018-03-27T07:00:13.403Z,5.90
2018-03-27T07:02:40.871Z,5.90
2018-03-27T07:05:08.590Z,6.00
2018-03-27T07:07:36.123Z,6.00
2018-03-27T07:10:03.739Z,6.10
2018-03-27T07:12:31.259Z,6.20
2018-03-27T07:14:58.928Z,6.20
2018-03-27T07:17:26.429Z,6.30
2018-03-27T07:19:53.935Z,6.30
2018-03-27T07:22:21.422Z,6.40
2018-03-27T07:24:48.874Z,6.50
2018-03-27T07:27:16.454Z,6.50
2018-03-27T07:29:43.926Z,6.60
2018-03-27T07:32:11.426Z,6.60
2018-03-27T07:34:38.959Z,6.70
2018-03-27T07:37:06.457Z,6.80
2018-03-27T07:39:33.984Z,6.90
2018-03-27T07:42:01.524Z,7.00
2018-03-27T07:44:30.914Z,7.30
2018-03-27T07:46:58.490Z,7.30
2018-03-27T07:49:26.840Z,7.40
2018-03-27T07:51:55.410Z,7.60
2018-03-27T07:54:23.027Z,7.60
2018-03-27T07:56:50.623Z,7.60
2018-03-27T07:59:18.116Z,7.70
2018-03-27T08:01:45.589Z,7.80
2018-03-27T08:04:13.193Z,7.80
2018-03-27T08:06:40.717Z,7.80
2018-03-27T08:09:08.340Z,7.90
2018-03-27T08:11:35.838Z,8.00
2018-03-27T08:14:03.297Z,8.10
2018-03-27T08:16:30.946Z,8.20
2018-03-27T08:19:01.512Z,8.20
2018-03-27T08:21:31.357Z,8.40
2018-03-27T08:24:01.032Z,8.40
2018-03-27T08:26:28.721Z,8.40
2018-03-27T08:29:00.363Z,8.40
2018-03-27T08:31:29.559Z,8.40
2018-03-27T08:33:58.072Z,8.40
2018-03-27T08:36:25.872Z,8.50
2018-03-27T08:38:53.347Z,8.50
2018-03-27T08:41:20.995Z,8.60
2018-03-27T08:43:48.679Z,8.60
2018-03-27T08:46:17.329Z,8.70
2018-03-27T08:48:47.497Z,8.70
2018-03-27T08:51:15.183Z,8.80
2018-03-27T08:53:43.595Z,8.80
2018-03-27T08:56:15.967Z,8.80
2018-03-27T08:58:43.720Z,8.80
2018-03-27T09:01:12.782Z,8.80
2018-03-27T09:03:41.161Z,9.00
2018-03-27T09:06:08.725Z,9.00
2018-03-27T09:08:36.959Z,9.00
2018-03-27T09:11:04.544Z,9.00
2018-03-27T09:13:32.133Z,9.10
2018-03-27T09:15:59.842Z,9.10
2018-03-27T09:18:27.443Z,9.10
2018-03-27T09:20:56.118Z,9.20
2018-03-27T09:23:24.536Z,9.30
2018-03-27T09:25:52.938Z,9.30
2018-03-27T09:28:20.545Z,9.30
2018-03-27T09:30:48.076Z,9.40
2018-03-27T09:33:15.792Z,9.50
2018-03-27T09:35:43.287Z,9.60
2018-03-27T09:38:10.804Z,9.70
2018-03-27T09:40:38.363Z,9.90
2018-03-27T09:43:06.627Z,9.90
2018-03-27T09:45:34.963Z,9.90
2018-03-27T09:48:02.386Z,9.90
2018-03-27T09:50:29.962Z,10.00
2018-03-27T09:52:57.485Z,10.00
2018-03-27T09:55:25.044Z,10.10
2018-03-27T09:57:52.685Z,10.20
2018-03-27T10:00:25.971Z,10.20
2018-03-27T10:02:53.477Z,10.30
2018-03-27T10:05:20.982Z,10.30
2018-03-27T10:07:48.579Z,10.20
2018-03-27T10:10:17.088Z,10.20
2018-03-27T10:12:44.627Z,10.20
2018-03-27T10:15:12.119Z,10.20
2018-03-27T10:17:39.632Z,10.20
2018-03-27T10:20:07.890Z,10.10
2018-03-27T10:22:35.399Z,10.10
2018-03-27T10:25:02.879Z,10.00
2018-03-27T10:27:30.373Z,9.80
2018-03-27T10:29:57.899Z,9.70
2018-03-27T10:32:25.430Z,9.60
2018-03-27T10:34:52.951Z,9.50
2018-03-27T10:37:20.455Z,9.30
2018-03-27T10:39:48.704Z,9.20
2018-03-27T10:42:16.219Z,9.20
2018-03-27T10:44:43.738Z,9.30
2018-03-27T10:47:11.266Z,9.30
2018-03-27T10:49:39.532Z,9.40
2018-03-27T10:52:07.016Z,9.40
2018-03-27T10:54:34.518Z,9.40
2018-03-27T10:57:02.012Z,9.50
2018-03-27T10:59:29.518Z,9.50
2018-03-27T11:01:57.047Z,9.60
2018-03-27T11:04:24.515Z,9.70
2018-03-27T11:06:52.053Z,9.80
2018-03-27T11:09:19.559Z,9.90
2018-03-27T11:11:47.150Z,9.90
2018-03-27T11:14:15.392Z,10.00
2018-03-27T11:16:42.908Z,10.00
2018-03-27T11:19:10.396Z,10.10
2018-03-27T11:21:39.220Z,10.40
2018-03-27T11:24:06.736Z,10.60
2018-03-27T11:26:34.266Z,10.80
2018-03-27T11:29:02.661Z,10.90
2018-03-27T11:31:30.351Z,10.90
2018-03-27T11:33:58.107Z,11.00
2018-03-27T11:36:25.651Z,11.00
2018-03-27T11:38:53.193Z,11.10
2018-03-27T11:41:20.748Z,11.30
2018-03-27T11:43:48.289Z,11.40
2018-03-27T11:46:16.662Z,11.40
2018-03-27T11:48:44.172Z,11.40
2018-03-27T11:51:11.664Z,11.40
2018-03-27T11:53:39.168Z,11.50
2018-03-27T11:56:06.710Z,11.50
2018-03-27T11:58:34.183Z,11.40
2018-03-27T12:01:01.697Z,11.50
2018-03-27T12:03:29.217Z,11.50
2018-03-27T12:05:56.755Z,11.40
2018-03-27T12:08:24.481Z,11.30
2018-03-27T12:10:52.176Z,11.30
2018-03-27T12:13:19.699Z,11.40
2018-03-27T12:15:47.302Z,11.40
2018-03-27T12:18:14.849Z,11.40
2018-03-27T12:20:42.439Z,11.40
2018-03-27T12:23:10.070Z,11.50
2018-03-27T12:25:37.699Z,11.50
2018-03-27T12:28:05.273Z,11.40
2018-03-27T12:30:32.754Z,11.50
2018-03-27T12:33:00.414Z,11.50
2018-03-27T12:35:27.912Z,11.60
2018-03-27T12:37:55.418Z,11.70
2018-03-27T12:40:23.670Z,11.80
2018-03-27T12:42:51.371Z,11.80
2018-03-27T12:45:19.019Z,11.80
2018-03-27T12:47:47.484Z,11.90
2018-03-27T12:50:14.949Z,11.90
2018-03-27T12:52:43.270Z,12.00
2018-03-27T12:55:10.761Z,11.90
2018-03-27T12:57:38.344Z,12.00
2018-03-27T13:00:06.600Z,11.90
2018-03-27T13:02:34.136Z,11.90
2018-03-27T13:05:01.638Z,11.90
2018-03-27T13:07:29.873Z,11.70
2018-03-27T13:09:57.462Z,11.70
2018-03-27T13:12:25.736Z,11.60
2018-03-27T13:14:53.195Z,11.60
2018-03-27T13:17:21.474Z,11.60
2018-03-27T13:19:49.093Z,11.60
2018-03-27T13:22:16.570Z,11.60
2018-03-27T13:24:44.549Z,11.60
2018-03-27T13:27:12.109Z,11.60
2018-03-27T13:29:39.587Z,11.80
2018-03-27T13:32:07.082Z,11.90
2018-03-27T13:34:34.550Z,12.00
2018-03-27T13:37:02.014Z,12.00
2018-03-27T13:39:29.521Z,12.10
2018-03-27T13:41:56.985Z,12.00
2018-03-27T13:44:24.471Z,12.00
2018-03-27T13:46:52.044Z,11.90
2018-03-27T13:49:19.578Z,12.00
2018-03-27T13:51:47.105Z,12.00
2018-03-27T13:54:14.600Z,12.10
2018-03-27T13:56:42.071Z,12.10
2018-03-27T13:59:09.565Z,12.00
2018-03-27T14:01:38.876Z,12.10
2018-03-27T14:04:07.167Z,12.10
2018-03-27T14:06:34.654Z,12.10
2018-03-27T14:09:02.162Z,12.10
2018-03-27T14:11:30.440Z,11.80
2018-03-27T14:13:58.692Z,11.90
2018-03-27T14:16:26.250Z,11.90
2018-03-27T14:18:53.786Z,11.80
2018-03-27T14:21:21.251Z,11.80
2018-03-27T14:23:48.822Z,11.70
2018-03-27T14:26:17.065Z,11.70
2018-03-27T14:28:44.581Z,11.60
2018-03-27T14:31:12.805Z,11.60
2018-03-27T14:33:40.288Z,11.50
2018-03-27T14:36:07.960Z,11.50
2018-03-27T14:38:36.247Z,11.40
2018-03-27T14:41:04.477Z,11.30
2018-03-27T14:43:31.931Z,11.30
2018-03-27T14:45:59.395Z,11.40
2018-03-27T14:48:26.953Z,11.30
2018-03-27T14:50:54.422Z,11.40
2018-03-27T14:53:21.896Z,11.30
2018-03-27T14:55:49.364Z,11.30
2018-03-27T14:58:16.850Z,11.30
2018-03-27T15:00:44.317Z,11.30
2018-03-27T15:03:11.784Z,11.40
2018-03-27T15:05:39.270Z,11.40
2018-03-27T15:08:06.874Z,11.40
2018-03-27T15:10:35.143Z,11.50
2018-03-27T15:13:03.411Z,11.50
2018-03-27T15:15:30.876Z,11.50
2018-03-27T15:17:58.346Z,11.70
2018-03-27T15:20:25.886Z,11.60
2018-03-27T15:22:53.362Z,11.70
2018-03-27T15:25:20.853Z,11.70
2018-03-27T15:27:48.363Z,11.60
2018-03-27T15:30:15.821Z,11.60
2018-03-27T15:32:44.109Z,11.60
2018-03-27T15:35:11.613Z,11.60
2018-03-27T15:37:39.212Z,11.50
2018-03-27T15:40:06.692Z,11.40
2018-03-27T15:42:34.175Z,11.30
2018-03-27T15:45:01.653Z,11.20
2018-03-27T15:47:29.138Z,11.20
2018-03-27T15:49:56.650Z,11.10
2018-03-27T15:52:24.199Z,11.10
2018-03-27T15:54:51.715Z,10.90
2018-03-27T15:57:19.194Z,10.80
2018-03-27T15:59:46.681Z,10.80
2018-03-27T16:02:15.119Z,10.70
2018-03-27T16:04:42.622Z,10.60
2018-03-27T16:07:10.102Z,10.40
2018-03-27T16:09:37.583Z,10.40
2018-03-27T16:12:05.862Z,10.30
2018-03-27T16:14:33.366Z,10.30
2018-03-27T16:17:00.947Z,10.30
2018-03-27T16:19:28.460Z,10.30
2018-03-27T16:21:56.008Z,10.40
2018-03-27T16:24:23.498Z,10.30
2018-03-27T16:26:50.976Z,10.30
2018-03-27T16:29:18.724Z,10.30
2018-03-27T16:31:46.209Z,10.20
2018-03-27T16:34:13.717Z,10.20
2018-03-27T16:36:41.224Z,10.20
2018-03-27T16:39:08.972Z,10.10
2018-03-27T16:41:37.158Z,10.10
2018-03-27T16:44:04.649Z,10.10
2018-03-27T16:46:32.147Z,10.00
2018-03-27T16:48:59.651Z,9.90
2018-03-27T16:51:27.897Z,9.80
2018-03-27T16:53:55.386Z,9.80
2018-03-27T16:56:23.660Z,9.70
2018-03-27T16:58:51.890Z,9.70
2018-03-27T17:01:19.414Z,9.70
2018-03-27T17:03:46.932Z,9.60
2018-03-27T17:06:14.519Z,9.60
2018-03-27T17:08:42.121Z,9.60
2018-03-27T17:11:10.670Z,9.50
2018-03-27T17:13:38.226Z,9.50
2018-03-27T17:16:05.806Z,9.40
2018-03-27T17:18:33.220Z,9.40
2018-03-27T17:21:00.779Z,9.30
2018-03-27T17:23:29.294Z,9.30
2018-03-27T17:25:57.318Z,9.30
2018-03-27T17:28:26.685Z,9.20
2018-03-27T17:30:56.152Z,9.20
2018-03-27T17:33:30.094Z,9.10
2018-03-27T17:35:58.228Z,9.10
2018-03-27T17:38:31.073Z,9.00
2018-03-27T17:41:07.038Z,8.90
2018-03-27T17:43:37.612Z,8.80
2018-03-27T17:46:18.205Z,8.70
2018-03-27T17:48:48.568Z,8.70
2018-03-27T17:51:25.977Z,8.60
2018-03-27T17:56:39.047Z,8.50
2018-03-27T17:59:06.558Z,8.40
2018-03-27T18:01:34.966Z,8.30
2018-03-27T18:04:07.757Z,8.20
2018-03-27T18:06:36.247Z,8.20
2018-03-27T18:09:04.082Z,8.20
2018-03-27T18:14:14.453Z,8.00
2018-03-27T18:16:44.284Z,8.00
2018-03-27T18:19:11.935Z,7.90
2018-03-27T18:21:40.536Z,7.90
2018-03-27T18:24:08.055Z,7.80
2018-03-27T18:26:35.594Z,7.90
2018-03-27T18:29:03.286Z,7.90
2018-03-27T18:31:31.630Z,7.70
2018-03-27T18:33:59.110Z,7.70
2018-03-27T18:36:26.584Z,7.70
2018-03-27T18:38:54.844Z,7.70
2018-03-27T18:41:22.329Z,7.70
2018-03-27T18:43:49.823Z,7.60
2018-03-27T18:46:17.393Z,7.60
2018-03-27T18:48:44.906Z,7.50
2018-03-27T18:51:12.463Z,7.50
2018-03-27T18:53:39.970Z,7.50
2018-03-27T18:56:07.480Z,7.50
2018-03-27T18:58:34.957Z,7.50
2018-03-27T19:01:02.505Z,7.50
2018-03-27T19:03:29.982Z,7.50
2018-03-27T19:05:57.505Z,7.40
2018-03-27T19:08:25.783Z,7.30
2018-03-27T19:10:53.372Z,7.30
2018-03-27T19:13:21.730Z,7.20
2018-03-27T19:15:49.274Z,7.20
2018-03-27T19:18:17.607Z,7.20
2018-03-27T19:20:45.154Z,7.10
2018-03-27T19:23:12.683Z,7.20
2018-03-27T19:25:40.152Z,7.10
2018-03-27T19:28:08.411Z,7.10
2018-03-27T19:30:35.972Z,7.10
2018-03-27T19:33:03.478Z,7.10
2018-03-27T19:35:30.970Z,7.00
2018-03-27T19:37:59.259Z,6.90
2018-03-27T19:40:27.003Z,6.90
2018-03-27T19:42:55.479Z,6.90
2018-03-27T19:45:23.045Z,7.00
2018-03-27T19:47:52.402Z,6.90
2018-03-27T19:50:19.970Z,6.90
2018-03-27T19:52:47.585Z,6.80
2018-03-27T19:55:16.073Z,6.80
2018-03-27T19:57:43.551Z,6.80
2018-03-27T20:00:11.128Z,6.80
2018-03-27T20:02:38.777Z,6.80
2018-03-27T20:05:06.644Z,6.70
2018-03-27T20:07:34.276Z,6.70
2018-03-27T20:10:01.882Z,6.70
2018-03-27T20:12:29.765Z,6.70
2018-03-27T20:14:58.210Z,6.80
2018-03-27T20:17:25.721Z,6.70
2018-03-27T20:19:57.172Z,6.70
2018-03-27T20:22:24.824Z,6.70
2018-03-27T20:24:52.520Z,6.70
2018-03-27T20:27:21.231Z,6.70
2018-03-27T20:29:50.116Z,6.70
2018-03-27T20:32:17.819Z,6.80
2018-03-27T20:34:45.439Z,6.70
2018-03-27T20:37:13.063Z,6.80
2018-03-27T20:39:41.164Z,6.70
2018-03-27T20:42:08.693Z,6.70
2018-03-27T20:44:36.190Z,6.70
2018-03-27T20:47:04.470Z,6.80
2018-03-27T20:49:32.893Z,6.80
2018-03-27T20:52:00.385Z,6.80
2018-03-27T20:54:28.042Z,6.80
2018-03-27T20:56:55.680Z,6.80
2018-03-27T20:59:23.294Z,6.80
2018-03-27T21:01:50.879Z,6.90
2018-03-27T21:04:18.440Z,6.80
2018-03-27T21:06:46.011Z,6.90
2018-03-27T21:09:13.537Z,7.00
2018-03-27T21:11:41.302Z,6.90
2018-03-27T21:14:08.823Z,7.00
2018-03-27T21:16:36.386Z,7.00
2018-03-27T21:19:04.631Z,7.00
2018-03-27T21:21:32.970Z,6.90
2018-03-27T21:24:00.740Z,6.90
2018-03-27T21:26:28.427Z,6.90
2018-03-27T21:28:56.176Z,6.90
2018-03-27T21:31:23.754Z,6.90
2018-03-27T21:33:52.161Z,6.80
2018-03-27T21:36:20.016Z,6.90
2018-03-27T21:38:47.814Z,6.90
2018-03-27T21:41:15.569Z,6.80
2018-03-27T21:43:43.166Z,6.80
2018-03-27T21:46:10.710Z,6.80
2018-03-27T21:48:38.211Z,6.70
2018-03-27T21:51:05.731Z,6.80
2018-03-27T21:53:33.275Z,6.80
2018-03-27T21:56:00.887Z,6.70
2018-03-27T21:58:28.398Z,6.70
2018-03-27T22:00:55.893Z,6.70
2018-03-27T22:03:24.263Z,6.70
2018-03-27T22:05:51.865Z,6.70
2018-03-27T22:08:19.357Z,6.80
2018-03-27T22:10:46.941Z,6.70
2018-03-27T22:13:15.348Z,6.70
2018-03-27T22:15:42.817Z,6.70
2018-03-27T22:18:10.322Z,6.80
2018-03-27T22:20:37.820Z,6.70
2018-03-27T22:23:05.319Z,6.70
2018-03-27T22:25:32.809Z,6.70
2018-03-27T22:28:00.487Z,6.70
2018-03-27T22:30:27.998Z,6.60
2018-03-27T22:32:55.506Z,6.70
2018-03-27T22:35:23.803Z,6.70
2018-03-27T22:37:51.403Z,6.60
2018-03-27T22:40:18.903Z,6.60
2018-03-27T22:42:46.438Z,6.60
2018-03-27T22:45:13.963Z,6.70
2018-03-27T22:47:41.469Z,6.70
2018-03-27T22:50:08.989Z,6.70
2018-03-27T22:52:36.577Z,6.70
2018-03-27T22:55:04.141Z,6.60
2018-03-27T22:57:31.662Z,6.60
2018-03-27T22:59:59.173Z,6.60
2018-03-27T23:02:26.659Z,6.60
2018-03-27T23:04:54.201Z,6.60
2018-03-27T23:07:21.712Z,6.50
2018-03-27T23:09:49.219Z,6.50
2018-03-27T23:12:16.699Z,6.40
2018-03-27T23:14:44.208Z,6.40
2018-03-27T23:17:11.755Z,6.30
2018-03-27T23:19:39.259Z,6.30
2018-03-27T23:22:06.763Z,6.20
2018-03-27T23:24:34.317Z,6.20
2018-03-27T23:27:01.924Z,6.30
2018-03-27T23:29:29.438Z,6.30
2018-03-27T23:31:56.922Z,6.30
2018-03-27T23:34:24.493Z,6.30
2018-03-27T23:36:52.042Z,6.30
2018-03-27T23:39:20.327Z,6.20
2018-03-27T23:41:48.584Z,6.30
2018-03-27T23:44:16.122Z,6.20
2018-03-27T23:46:43.626Z,6.20
2018-03-27T23:49:11.141Z,6.30
2018-03-27T23:51:38.663Z,6.30
2018-03-27T23:54:06.973Z,6.30
2018-03-27T23:56:34.468Z,6.30
2018-03-27T23:59:02.066Z,6.30
